Time;durP1;ratioP1;P1;durP2;ratioP2;P2;SDS_P1;SDS_P2;PMS_P1;PMS_P2;Temp;Humidity;BMP_temperature;BMP_pressure;BME280_temperature;BME280_humidity;BME280_pressure;Samples;Min_cycle;Max_cycle;Signal;HPM_P1;HPM_P2
2021/08/19 00:01:35;;;;;;;8.38;6.25;;;;;;;;;;3565950;40;20134;-59
2021/08/19 00:04:01;;;;;;;6.90;5.53;;;;;;;;;;3565843;40;20032;-59
2021/08/19 00:06:27;;;;;;;9.95;6.25;;;;;;;;;;3565109;40;20060;-59
2021/08/19 00:08:53;;;;;;;8.95;5.82;;;;;;;;;;3565846;40;20122;-59
2021/08/19 00:11:19;;;;;;;8.50;6.55;;;;;;;;;;3565045;40;20094;-59
2021/08/19 00:13:45;;;;;;;10.30;7.07;;;;;;;;;;3564760;40;20073;-60
2021/08/19 00:16:11;;;;;;;9.43;6.75;;;;;;;;;;3566351;40;20535;-59
2021/08/19 00:18:37;;;;;;;14.98;6.95;;;;;;;;;;3564627;40;20093;-59
2021/08/19 00:21:03;;;;;;;11.10;6.20;;;;;;;;;;3565263;40;20122;-59
2021/08/19 00:23:29;;;;;;;11.63;6.72;;;;;;;;;;3566244;40;20089;-59
2021/08/19 00:25:55;;;;;;;10.80;7.53;;;;;;;;;;3566057;40;20437;-59
2021/08/19 00:28:21;;;;;;;10.95;7.18;;;;;;;;;;3566077;40;20136;-59
2021/08/19 00:30:47;;;;;;;7.35;5.80;;;;;;;;;;3565915;40;20053;-59
2021/08/19 00:33:13;;;;;;;11.75;8.23;;;;;;;;;;3567032;40;20021;-59
2021/08/19 00:35:38;;;;;;;12.23;7.97;;;;;;;;;;3566343;40;20033;-59
2021/08/19 00:38:05;;;;;;;12.27;8.45;;;;;;;;;;3566625;40;20030;-59
2021/08/19 00:40:31;;;;;;;12.65;7.75;;;;;;;;;;3566462;40;20477;-59
2021/08/19 00:42:57;;;;;;;15.57;8.20;;;;;;;;;;3556536;40;20275;-59
2021/08/19 00:45:23;;;;;;;13.73;7.88;;;;;;;;;;3565980;40;20036;-59
2021/08/19 00:47:49;;;;;;;14.55;8.77;;;;;;;;;;3566639;40;20328;-59
2021/08/19 00:50:15;;;;;;;13.02;8.85;;;;;;;;;;3565246;40;20036;-59
2021/08/19 00:52:41;;;;;;;10.95;7.65;;;;;;;;;;3565225;40;20033;-59
2021/08/19 00:55:07;;;;;;;15.02;7.72;;;;;;;;;;3565796;40;20028;-59
2021/08/19 00:57:33;;;;;;;16.02;8.77;;;;;;;;;;3565698;40;20040;-59
2021/08/19 00:59:59;;;;;;;10.30;7.43;;;;;;;;;;3566597;40;20120;-59
2021/08/19 01:02:25;;;;;;;10.57;7.97;;;;;;;;;;3566696;40;20042;-59
2021/08/19 01:04:52;;;;;;;10.63;7.65;;;;;;;;;;3567013;40;20749;-59
2021/08/19 01:07:18;;;;;;;13.25;7.85;;;;;;;;;;3565082;40;20072;-59
2021/08/19 01:09:44;;;;;;;17.02;8.30;;;;;;;;;;3566539;40;20851;-59
2021/08/19 01:12:10;;;;;;;11.57;8.25;;;;;;;;;;3566411;40;20323;-59
2021/08/19 01:14:36;;;;;;;10.25;7.20;;;;;;;;;;3565522;40;20056;-60
2021/08/19 01:17:02;;;;;;;10.18;7.47;;;;;;;;;;3565331;40;20037;-59
2021/08/19 01:19:28;;;;;;;16.98;7.90;;;;;;;;;;3566302;40;20034;-59
2021/08/19 01:21:54;;;;;;;13.38;8.10;;;;;;;;;;3567544;40;20123;-59
2021/08/19 01:24:20;;;;;;;11.00;7.60;;;;;;;;;;3566493;40;20409;-59
2021/08/19 01:26:46;;;;;;;9.45;7.35;;;;;;;;;;3566911;40;20502;-59
2021/08/19 01:29:12;;;;;;;13.82;7.90;;;;;;;;;;3566360;40;20017;-59
2021/08/19 01:31:38;;;;;;;12.43;8.00;;;;;;;;;;3565712;40;20068;-59
2021/08/19 01:34:04;;;;;;;13.20;7.95;;;;;;;;;;3565724;40;20057;-59
2021/08/19 01:36:30;;;;;;;11.38;7.72;;;;;;;;;;3566974;40;20205;-59
2021/08/19 01:38:56;;;;;;;12.75;8.50;;;;;;;;;;3564403;40;20793;-59
2021/08/19 01:41:22;;;;;;;13.90;8.55;;;;;;;;;;3564311;40;20022;-60
2021/08/19 01:43:48;;;;;;;13.40;7.50;;;;;;;;;;3565382;40;20025;-59
2021/08/19 01:46:14;;;;;;;11.60;8.10;;;;;;;;;;3564551;40;20115;-59
2021/08/19 01:48:40;;;;;;;11.82;8.45;;;;;;;;;;3563966;40;20045;-59
2021/08/19 01:51:06;;;;;;;11.75;7.68;;;;;;;;;;3564110;40;20057;-60
2021/08/19 01:53:32;;;;;;;10.88;7.35;;;;;;;;;;3565011;40;20122;-59
2021/08/19 01:55:57;;;;;;;11.48;8.55;;;;;;;;;;3564284;40;20706;-59
2021/08/19 01:58:23;;;;;;;15.75;7.43;;;;;;;;;;3567529;40;20029;-59
2021/08/19 02:00:49;;;;;;;13.10;7.82;;;;;;;;;;3564843;40;20422;-59
2021/08/19 02:03:15;;;;;;;12.32;7.13;;;;;;;;;;3565696;40;20060;-59
2021/08/19 02:05:42;;;;;;;12.45;7.20;;;;;;;;;;3564485;40;20349;-59
2021/08/19 02:08:08;;;;;;;9.80;7.35;;;;;;;;;;3564109;40;20053;-59
2021/08/19 02:10:34;;;;;;;11.38;7.97;;;;;;;;;;3564391;40;20032;-60
2021/08/19 02:12:59;;;;;;;14.75;7.55;;;;;;;;;;3564889;40;20041;-59
2021/08/19 02:15:25;;;;;;;11.10;6.65;;;;;;;;;;3566047;40;20497;-59
2021/08/19 02:17:51;;;;;;;11.82;7.25;;;;;;;;;;3571666;40;20529;-60
2021/08/19 02:20:17;;;;;;;10.68;7.00;;;;;;;;;;3564375;40;20037;-60
2021/08/19 02:22:43;;;;;;;10.85;7.28;;;;;;;;;;3565408;40;20033;-60
2021/08/19 02:25:09;;;;;;;11.38;6.93;;;;;;;;;;3564612;40;20794;-60
2021/08/19 02:27:35;;;;;;;11.55;7.15;;;;;;;;;;3564527;40;20036;-60
2021/08/19 02:30:01;;;;;;;9.95;6.38;;;;;;;;;;3565456;40;20049;-59
2021/08/19 02:32:27;;;;;;;12.30;8.18;;;;;;;;;;3565296;40;20116;-59
2021/08/19 02:34:55;;;;;;;11.07;7.57;;;;;;;;;;3566378;40;20096;-59
2021/08/19 02:37:21;;;;;;;14.63;7.57;;;;;;;;;;3566116;40;20028;-60
2021/08/19 02:39:47;;;;;;;12.15;7.90;;;;;;;;;;3564883;40;20130;-59
2021/08/19 02:42:13;;;;;;;10.60;7.80;;;;;;;;;;3565124;40;20427;-59
2021/08/19 02:44:39;;;;;;;13.15;7.95;;;;;;;;;;3565184;40;20032;-59
2021/08/19 02:47:06;;;;;;;12.73;8.20;;;;;;;;;;3572366;40;20034;-59
2021/08/19 02:49:32;;;;;;;10.50;8.10;;;;;;;;;;3565868;40;20041;-59
2021/08/19 02:51:58;;;;;;;15.57;7.85;;;;;;;;;;3564908;40;20150;-59
2021/08/19 02:54:24;;;;;;;10.85;7.25;;;;;;;;;;3566806;40;20126;-59
2021/08/19 02:56:50;;;;;;;12.20;8.38;;;;;;;;;;3565102;40;20040;-59
2021/08/19 02:59:16;;;;;;;14.45;7.80;;;;;;;;;;3565518;40;20037;-59
2021/08/19 03:01:42;;;;;;;9.95;7.43;;;;;;;;;;3564992;40;20484;-59
2021/08/19 03:04:08;;;;;;;14.70;8.15;;;;;;;;;;3564740;40;20024;-59
2021/08/19 03:06:33;;;;;;;14.50;8.73;;;;;;;;;;3567052;40;20096;-59
2021/08/19 03:09:00;;;;;;;11.35;7.78;;;;;;;;;;3564635;40;20061;-59
2021/08/19 03:11:26;;;;;;;11.88;7.78;;;;;;;;;;3564484;40;20052;-59
2021/08/19 03:13:53;;;;;;;13.63;7.30;;;;;;;;;;3565314;40;20041;-59
2021/08/19 03:16:19;;;;;;;11.50;8.07;;;;;;;;;;3566321;40;20171;-59
2021/08/19 03:18:45;;;;;;;9.32;7.25;;;;;;;;;;3564008;40;20037;-59
2021/08/19 03:21:10;;;;;;;12.65;7.82;;;17.10;99.90;;;;;;3561954;40;20037;-59
2021/08/19 03:23:36;;;;;;;10.75;7.97;;;;;;;;;;3563068;40;20091;-60
2021/08/19 03:26:04;;;;;;;15.43;7.78;;;;;;;;;;3564472;40;20026;-59
2021/08/19 03:28:30;;;;;;;10.07;6.60;;;;;;;;;;3565979;40;20060;-59
2021/08/19 03:30:57;;;;;;;12.10;8.32;;;;;;;;;;3562481;40;20027;-59
2021/08/19 03:33:23;;;;;;;11.20;7.35;;;;;;;;;;3563696;40;20492;-59
2021/08/19 03:35:49;;;;;;;14.32;8.20;;;;;;;;;;3564980;40;20044;-59
2021/08/19 03:38:15;;;;;;;10.90;7.38;;;;;;;;;;3566102;40;20048;-59
2021/08/19 03:40:41;;;;;;;13.02;8.60;;;;;;;;;;3564457;40;20037;-59
2021/08/19 03:43:07;;;;;;;17.38;8.30;;;;;;;;;;3564136;40;20161;-60
2021/08/19 03:45:33;;;;;;;18.20;9.55;;;;;;;;;;3565550;40;20077;-59
2021/08/19 03:47:59;;;;;;;16.73;9.45;;;;;;;;;;3565336;40;20037;-60
2021/08/19 03:50:27;;;;;;;15.20;10.07;;;;;;;;;;3565394;40;20065;-60
2021/08/19 03:52:53;;;;;;;20.48;11.45;;;;;;;;;;3566749;40;20025;-60
2021/08/19 03:55:19;;;;;;;20.38;12.95;;;;;;;;;;3565743;40;20040;-60
2021/08/19 03:57:46;;;;;;;21.92;13.32;;;;;;;;;;3568398;40;20061;-59
2021/08/19 04:00:12;;;;;;;21.13;13.02;;;;;;;;;;3568121;40;20033;-59
2021/08/19 04:02:38;;;;;;;22.70;12.88;;;;;;;;;;3567340;40;20473;-60
2021/08/19 04:05:04;;;;;;;22.67;12.15;;;;;;;;;;3564310;40;20110;-59
2021/08/19 04:07:30;;;;;;;18.08;11.88;;;;;;;;;;3566264;40;20047;-59
2021/08/19 04:09:56;;;;;;;18.58;12.27;;;;;;;;;;3564945;40;20761;-59
2021/08/19 04:12:22;;;;;;;26.52;14.60;;;;;;;;;;3563848;40;20025;-59
2021/08/19 04:14:48;;;;;;;22.70;15.00;;;;;;;;;;3564195;40;20031;-59
2021/08/19 04:17:14;;;;;;;22.13;15.32;;;;;;;;;;3565973;40;20044;-59
2021/08/19 04:19:40;;;;;;;25.05;15.45;;;;;;;;;;3565823;40;20033;-59
2021/08/19 04:22:06;;;;;;;24.70;16.13;;;;;;;;;;3567146;40;20159;-59
2021/08/19 04:24:32;;;;;;;27.17;16.63;;;;;;;;;;3565263;40;20040;-59
2021/08/19 04:26:58;;;;;;;24.90;17.27;;;;;;;;;;3563700;40;20082;-59
2021/08/19 04:29:24;;;;;;;31.35;17.65;;;;;;;;;;3565595;40;20081;-59
2021/08/19 04:31:50;;;;;;;26.23;17.38;;;;;;;;;;3563879;40;20064;-59
2021/08/19 04:34:16;;;;;;;24.40;16.45;;;;;;;;;;3564835;40;20666;-61
2021/08/19 04:36:42;;;;;;;22.65;15.35;;;;;;;;;;3566883;40;20635;-59
2021/08/19 04:39:08;;;;;;;24.42;16.27;;;;;;;;;;3564323;40;20055;-60
2021/08/19 04:41:35;;;;;;;26.23;15.70;;;;;;;;;;3568560;40;20084;-59
2021/08/19 04:44:01;;;;;;;20.90;14.35;;;;;;;;;;3565748;40;20037;-61
2021/08/19 04:46:27;;;;;;;24.77;15.80;;;;;;;;;;3566855;40;20619;-64
2021/08/19 04:48:52;;;;;;;23.25;14.15;;;15.90;99.90;;;;;;3564739;40;20087;-64
2021/08/19 04:51:18;;;;;;;27.02;14.70;;;;;;;;;;3563562;40;20041;-65
2021/08/19 04:53:44;;;;;;;26.80;14.25;;;15.90;99.90;;;;;;3565395;40;20064;-64
2021/08/19 04:56:10;;;;;;;25.58;14.20;;;;;;;;;;3565544;40;20501;-64
2021/08/19 04:58:37;;;;;;;23.00;13.98;;;;;;;;;;3565620;40;20144;-64
2021/08/19 05:01:03;;;;;;;23.27;13.20;;;;;;;;;;3563393;40;20045;-64
2021/08/19 05:03:29;;;;;;;18.45;12.75;;;;;;;;;;3565758;40;20025;-64
2021/08/19 05:05:55;;;;;;;19.48;12.07;;;;;;;;;;3565884;40;20438;-64
2021/08/19 05:08:21;;;;;;;17.52;11.32;;;;;;;;;;3566754;40;20025;-63
2021/08/19 05:10:47;;;;;;;19.42;11.40;;;;;;;;;;3567312;40;20029;-65
2021/08/19 05:13:13;;;;;;;18.25;10.73;;;;;;;;;;3568589;40;20029;-65
2021/08/19 05:15:39;;;;;;;18.25;11.35;;;;;;;;;;3567243;40;20034;-65
2021/08/19 05:18:05;;;;;;;15.55;10.13;;;;;;;;;;3568225;40;20036;-65
2021/08/19 05:20:31;;;;;;;20.50;11.60;;;;;;;;;;3567718;40;20080;-65
2021/08/19 05:22:57;;;;;;;16.95;10.45;;;;;;;;;;3564508;40;20728;-64
2021/08/19 05:25:23;;;;;;;14.55;9.60;;;;;;;;;;3568576;40;20066;-65
2021/08/19 05:27:49;;;;;;;16.17;9.75;;;;;;;;;;3566933;40;20377;-65
2021/08/19 05:30:15;;;;;;;15.07;9.52;;;;;;;;;;3567129;40;20033;-64
2021/08/19 05:32:41;;;;;;;17.60;9.45;;;;;;;;;;3565536;40;20596;-65
2021/08/19 05:35:07;;;;;;;16.40;8.60;;;;;;;;;;3565063;40;20033;-64
2021/08/19 05:37:33;;;;;;;12.65;9.15;;;;;;;;;;3565553;40;20032;-65
2021/08/19 05:39:59;;;;;;;14.05;7.82;;;;;;;;;;3566768;40;20407;-64
2021/08/19 05:42:26;;;;;;;11.60;8.13;;;;;;;;;;3566925;40;20021;-64
2021/08/19 05:44:52;;;;;;;10.13;6.68;;;;;;;;;;3565203;40;20057;-64
2021/08/19 05:47:18;;;;;;;13.52;6.93;;;;;;;;;;3567500;40;20032;-64
2021/08/19 05:49:45;;;;;;;11.90;7.03;;;;;;;;;;3567537;40;20055;-64
2021/08/19 05:52:15;;;;;;;12.98;7.47;;;;;;;;;;3571685;40;20064;-64
2021/08/19 05:54:41;;;;;;;11.27;6.93;;;;;;;;;;3565541;40;20057;-65
2021/08/19 05:57:08;;;;;;;10.63;6.50;;;;;;;;;;3566891;40;20106;-65
2021/08/19 05:59:34;;;;;;;13.38;6.95;;;;;;;;;;3567315;40;20434;-65
2021/08/19 06:02:00;;;;;;;10.85;6.93;;;;;;;;;;3565169;40;20037;-64
2021/08/19 06:04:26;;;;;;;13.13;6.65;;;;;;;;;;3565998;40;20042;-64
2021/08/19 06:06:52;;;;;;;10.40;6.47;;;;;;;;;;3564840;40;20045;-64
2021/08/19 06:09:18;;;;;;;8.00;5.28;;;;;;;;;;3567666;40;20163;-63
2021/08/19 06:11:45;;;;;;;12.43;5.45;;;;;;;;;;3566582;40;20072;-63
2021/08/19 06:14:11;;;;;;;8.30;5.75;;;;;;;;;;3568494;40;20022;-64
2021/08/19 06:16:36;;;;;;;13.25;6.53;;;;;;;;;;3567712;40;20070;-63
2021/08/19 06:19:03;;;;;;;11.55;5.97;;;;;;;;;;3567439;40;20064;-63
2021/08/19 06:21:28;;;;;;;8.20;5.88;;;17.00;99.90;;;;;;3566169;40;20037;-64
2021/08/19 06:23:54;;;;;;;8.02;5.22;;;16.90;99.90;;;;;;3566242;40;20253;-60
2021/08/19 06:26:20;;;;;;;9.75;5.50;;;;;;;;;;3568163;40;20391;-60
2021/08/19 06:28:46;;;;;;;11.43;5.10;;;;;;;;;;3564770;40;20111;-60
2021/08/19 06:31:12;;;;;;;7.90;4.88;;;;;;;;;;3565546;40;20033;-60
2021/08/19 06:33:38;;;;;;;8.20;5.18;;;;;;;;;;3568232;40;20032;-60
2021/08/19 06:36:07;;;;;;;9.52;5.20;;;;;;;;;;3567103;40;20013;-60
2021/08/19 06:38:33;;;;;;;6.72;4.88;;;;;;;;;;3566774;40;20041;-60
2021/08/19 06:40:59;;;;;;;8.43;4.95;;;;;;;;;;3567545;40;20076;-60
2021/08/19 06:43:25;;;;;;;13.63;5.88;;;;;;;;;;3565755;40;20569;-62
2021/08/19 06:45:51;;;;;;;15.75;7.20;;;;;;;;;;3567888;40;20091;-60
2021/08/19 06:48:17;;;;;;;9.65;5.78;;;;;;;;;;3565960;40;20088;-61
2021/08/19 06:50:43;;;;;;;9.05;5.15;;;;;;;;;;3564973;40;20033;-61
2021/08/19 06:53:09;;;;;;;13.82;5.50;;;;;;;;;;3565808;40;20029;-60
2021/08/19 06:55:35;;;;;;;11.23;5.57;;;18.50;99.90;;;;;;3566868;40;20280;-60
2021/08/19 06:58:01;;;;;;;14.35;6.03;;;;;;;;;;3567115;40;20049;-60
2021/08/19 07:00:27;;;;;;;9.77;5.60;;;;;;;;;;3566098;40;20098;-60
2021/08/19 07:02:53;;;;;;;10.60;5.53;;;;;;;;;;3565054;40;20025;-60
2021/08/19 07:05:19;;;;;;;9.68;5.82;;;;;;;;;;3567387;40;20095;-60
2021/08/19 07:07:45;;;;;;;10.75;5.85;;;;;;;;;;3567513;40;20048;-60
2021/08/19 07:10:11;;;;;;;10.02;5.65;;;;;;;;;;3564349;40;20037;-60
2021/08/19 07:12:37;;;;;;;10.40;5.75;;;;;;;;;;3566673;40;20025;-61
2021/08/19 07:15:03;;;;;;;11.27;5.72;;;;;;;;;;3562789;40;20036;-60
2021/08/19 07:17:29;;;;;;;10.30;5.70;;;;;;;;;;3564326;40;20057;-60
2021/08/19 07:19:55;;;;;;;9.50;5.55;;;;;;;;;;3566218;40;20036;-60
2021/08/19 07:22:21;;;;;;;13.02;5.70;;;;;;;;;;3566480;40;20033;-60
2021/08/19 07:24:46;;;;;;;10.13;5.28;;;;;;;;;;3569383;40;20076;-60
2021/08/19 07:27:13;;;;;;;10.32;6.90;;;;;;;;;;3565883;40;20037;-60
2021/08/19 07:29:39;;;;;;;10.77;5.43;;;;;;;;;;3565338;40;20042;-60
2021/08/19 07:32:05;;;;;;;9.40;6.00;;;;;;;;;;3567421;40;20470;-60
2021/08/19 07:34:31;;;;;;;12.18;6.38;;;;;;;;;;3566114;40;20032;-60
2021/08/19 07:36:57;;;;;;;11.80;5.95;;;;;;;;;;3567430;40;20021;-60
2021/08/19 07:39:22;;;;;;;11.15;5.75;;;;;;;;;;3563962;40;20601;-60
2021/08/19 07:41:48;;;;;;;9.02;6.10;;;;;;;;;;3562261;40;20045;-60
2021/08/19 07:44:14;;;;;;;11.98;7.13;;;;;;;;;;3566443;40;20536;-60
2021/08/19 07:46:40;;;;;;;12.15;7.28;;;;;;;;;;3567894;40;20026;-60
2021/08/19 07:49:06;;;;;;;11.38;6.80;;;;;;;;;;3571923;40;20037;-60
2021/08/19 07:51:34;;;;;;;9.43;5.82;;;19.20;99.90;;;;;;3567479;40;20383;-60
2021/08/19 07:54:00;;;;;;;10.50;6.28;;;;;;;;;;3567148;40;20403;-60
2021/08/19 07:56:26;;;;;;;23.60;7.97;;;;;;;;;;3567112;40;20116;-60
2021/08/19 07:58:52;;;;;;;11.63;7.10;;;;;;;;;;3570023;40;20052;-60
2021/08/19 08:01:17;;;;;;;12.52;6.30;;;;;;;;;;3566482;40;20033;-60
2021/08/19 08:03:43;;;;;;;13.93;7.05;;;;;;;;;;3567799;40;20677;-60
2021/08/19 08:06:09;;;;;;;11.15;7.20;;;;;;;;;;3563335;40;20045;-60
2021/08/19 08:08:36;;;;;;;15.77;6.72;;;;;;;;;;3564491;40;20057;-60
2021/08/19 08:11:02;;;;;;;14.23;7.13;;;;;;;;;;3568508;40;20042;-59
2021/08/19 08:13:27;;;;;;;9.18;6.32;;;;;;;;;;3566336;40;20023;-60
2021/08/19 08:15:53;;;;;;;13.02;6.90;;;;;;;;;;3568299;40;20025;-60
2021/08/19 08:18:19;;;;;;;17.25;6.88;;;;;;;;;;3568396;40;20037;-60
2021/08/19 08:20:45;;;;;;;16.23;7.93;;;;;;;;;;3566818;40;20029;-60
2021/08/19 08:23:11;;;;;;;18.88;5.93;;;;;;;;;;3566335;40;20041;-59
2021/08/19 08:25:37;;;;;;;12.98;5.93;;;;;;;;;;3565298;40;20022;-60
2021/08/19 08:28:15;;;;;;;12.00;6.40;;;;;;;;;;3564619;40;20029;-60
2021/08/19 08:30:41;;;;;;;13.43;5.57;;;;;;;;;;3564895;40;20044;-60
2021/08/19 08:33:07;;;;;;;12.00;6.60;;;;;;;;;;3566310;40;20025;-60
2021/08/19 08:35:36;;;;;;;12.00;7.13;;;;;;;;;;3565599;40;20032;-60
2021/08/19 08:38:05;;;;;;;15.40;7.80;;;;;;;;;;3570733;40;20075;-59
2021/08/19 08:40:32;;;;;;;15.93;5.88;;;18.40;99.90;;;;;;3566791;40;20056;-60
2021/08/19 08:42:58;;;;;;;20.60;7.00;;;;;;;;;;3568115;40;20319;-60
2021/08/19 08:45:25;;;;;;;18.85;7.15;;;;;;;;;;3562207;40;20025;-60
2021/08/19 08:47:51;;;;;;;11.90;5.53;;;;;;;;;;3566361;40;20426;-60
2021/08/19 08:50:17;;;;;;;14.35;5.47;;;;;;;;;;3567183;40;20037;-60
2021/08/19 08:52:43;;;;;;;9.38;4.85;;;;;;;;;;3565839;40;20025;-60
2021/08/19 08:55:09;;;;;;;9.73;5.32;;;;;;;;;;3566294;40;20073;-60
2021/08/19 08:57:35;;;;;;;12.40;4.63;;;;;;;;;;3565049;40;20194;-60
2021/08/19 09:00:01;;;;;;;8.88;4.78;;;;;;;;;;3566732;40;20511;-60
2021/08/19 09:02:27;;;;;;;11.13;4.70;;;;;;;;;;3567978;40;20036;-59
2021/08/19 09:04:53;;;;;;;9.23;4.60;;;;;;;;;;3566834;40;21113;-60
2021/08/19 09:07:19;;;;;;;10.75;5.10;;;;;;;;;;3566505;40;20051;-60
2021/08/19 09:09:45;;;;;;;7.13;4.72;;;;;;;;;;3566671;40;20033;-60
2021/08/19 09:12:11;;;;;;;20.65;5.68;;;;;;;;;;3566499;40;20029;-60
2021/08/19 09:14:40;;;;;;;10.15;6.15;;;;;;;;;;3563654;40;20048;-60
2021/08/19 09:17:06;;;;;;;11.82;5.68;;;;;;;;;;3566416;40;20311;-60
2021/08/19 09:19:32;;;;;;;10.23;6.15;;;;;;;;;;3568798;40;20021;-60
2021/08/19 09:21:58;;;;;;;10.63;6.32;;;;;;;;;;3563292;40;20041;-60
2021/08/19 09:24:24;;;;;;;9.57;6.43;;;;;;;;;;3565483;40;20358;-60
2021/08/19 09:26:50;;;;;;;11.70;6.10;;;;;;;;;;3569007;40;20025;-60
2021/08/19 09:29:16;;;;;;;21.63;8.90;;;;;;;;;;3567617;40;20033;-60
2021/08/19 09:31:42;;;;;;;18.23;6.57;;;;;;;;;;3567217;40;20414;-60
2021/08/19 09:34:08;;;;;;;12.65;6.47;;;;;;;;;;3565877;40;20143;-61
2021/08/19 09:36:34;;;;;;;14.73;7.45;;;;;;;;;;3567412;40;20399;-61
2021/08/19 09:39:00;;;;;;;15.20;6.80;;;;;;;;;;3569196;40;20613;-61
2021/08/19 09:41:26;;;;;;;11.23;6.50;;;;;;;;;;3565330;40;20057;-63
2021/08/19 09:43:52;;;;;;;9.98;6.72;;;;;;;;;;3569397;40;20146;-64
2021/08/19 09:46:18;;;;;;;18.08;8.02;;;;;;;;;;3566785;40;20050;-64
2021/08/19 09:48:44;;;;;;;17.45;7.20;;;;;;;;;;3569416;40;20041;-64
2021/08/19 09:51:09;;;;;;;11.30;6.75;;;20.00;99.90;;;;;;3566338;40;20037;-64
2021/08/19 09:53:35;;;;;;;10.10;6.05;;;;;;;;;;3566525;40;20314;-66
2021/08/19 09:56:01;;;;;;;12.77;6.75;;;;;;;;;;3565427;40;20044;-64
2021/08/19 09:58:28;;;;;;;15.52;6.35;;;;;;;;;;3563004;40;20629;-63
2021/08/19 10:00:54;;;;;;;19.63;7.50;;;;;;;;;;3568574;40;20677;-64
2021/08/19 10:03:20;;;;;;;16.30;5.07;;;;;;;;;;3565433;40;20032;-65
2021/08/19 10:05:46;;;;;;;48.75;22.65;;;;;;;;;;3567967;40;20058;-60
2021/08/19 10:08:13;;;;;;;24.73;8.70;;;;;;;;;;3566733;40;20033;-60
2021/08/19 10:10:39;;;;;;;16.08;5.70;;;;;;;;;;3566583;40;20403;-60
2021/08/19 10:13:06;;;;;;;18.40;4.80;;;;;;;;;;3564516;40;20060;-60
2021/08/19 10:15:33;;;;;;;18.90;5.13;;;;;;;;;;3568171;40;20029;-60
2021/08/19 10:17:59;;;;;;;8.55;4.93;;;;;;;;;;3566878;40;20048;-60
2021/08/19 10:20:25;;;;;;;7.45;4.25;;;;;;;;;;3567612;40;20095;-60
2021/08/19 10:22:51;;;;;;;12.98;5.07;;;;;;;;;;3566067;40;20041;-59
2021/08/19 10:25:17;;;;;;;17.10;5.03;;;;;;;;;;3568168;40;20021;-59
2021/08/19 10:27:43;;;;;;;12.20;4.43;;;;;;;;;;3565779;40;20102;-60
2021/08/19 10:30:09;;;;;;;16.85;5.25;;;;;;;;;;3569053;40;20248;-59
2021/08/19 10:32:35;;;;;;;11.93;4.50;;;;;;;;;;3563625;40;20032;-60
2021/08/19 10:35:03;;;;;;;7.63;4.28;;;;;;;;;;3564122;40;20026;-59
2021/08/19 10:37:29;;;;;;;11.43;4.78;;;;;;;;;;3566519;40;20025;-59
2021/08/19 10:39:55;;;;;;;8.05;3.88;;;;;;;;;;3566435;40;20036;-59
2021/08/19 10:42:22;;;;;;;10.65;4.57;;;;;;;;;;3557159;40;20382;-59
2021/08/19 10:44:49;;;;;;;14.93;4.80;;;20.30;99.90;;;;;;3565684;40;20030;-60
2021/08/19 10:47:15;;;;;;;8.80;4.00;;;;;;;;;;3565860;40;20040;-62
2021/08/19 10:49:41;;;;;;;10.77;3.80;;;;;;;;;;3563326;40;20033;-59
2021/08/19 10:52:07;;;;;;;8.63;4.25;;;;;;;;;;3565031;40;20501;-59
2021/08/19 10:54:34;;;;;;;10.35;4.38;;;;;;;;;;3566985;40;20138;-59
2021/08/19 10:57:00;;;;;;;8.95;4.10;;;;;;;;;;3566272;40;20059;-60
2021/08/19 10:59:26;;;;;;;9.68;3.88;;;;;;;;;;3569094;40;20049;-60
2021/08/19 11:01:52;;;;;;;8.75;4.03;;;;;;;;;;3565591;40;20106;-60
2021/08/19 11:04:18;;;;;;;11.10;4.13;;;;;;;;;;3565165;40;20067;-59
2021/08/19 11:06:44;;;;;;;7.97;4.22;;;;;;;;;;3569070;40;20090;-59
2021/08/19 11:09:10;;;;;;;8.48;4.20;;;;;;;;;;3567372;40;20047;-59
2021/08/19 11:11:36;;;;;;;14.65;4.57;;;;;;;;;;3566503;40;20786;-59
2021/08/19 11:14:02;;;;;;;7.90;4.13;;;;;;;;;;3564733;40;20037;-63
2021/08/19 11:16:28;;;;;;;10.35;4.20;;;;;;;;;;3565975;40;20040;-60
2021/08/19 11:18:54;;;;;;;16.90;4.50;;;;;;;;;;3567816;40;20119;-60
2021/08/19 11:21:19;;;;;;;16.20;3.88;;;;;;;;;;3567815;40;20045;-59
2021/08/19 11:23:46;;;;;;;17.08;4.32;;;;;;;;;;3565066;40;20060;-59
2021/08/19 11:26:12;;;;;;;15.82;4.00;;;;;;;;;;3565715;40;20025;-59
2021/08/19 11:28:38;;;;;;;10.52;4.05;;;;;;;;;;3562785;40;20111;-60
2021/08/19 11:31:04;;;;;;;23.52;4.47;;;;;;;;;;3566491;40;20101;-60
2021/08/19 11:33:30;;;;;;;10.77;3.80;;;;;;;;;;3566382;40;20033;-60
2021/08/19 11:35:56;;;;;;;16.02;4.63;;;;;;;;;;3563623;40;20287;-60
2021/08/19 11:38:21;;;;;;;12.63;3.85;;;;;;;;;;3565031;40;20093;-60
2021/08/19 11:40:47;;;;;;;10.02;3.60;;;;;;;;;;3568233;40;20059;-60
2021/08/19 11:43:13;;;;;;;11.07;3.88;;;;;;;;;;3567877;40;20041;-60
2021/08/19 11:45:39;;;;;;;11.18;3.60;;;;;;;;;;3567459;40;20026;-60
2021/08/19 11:48:05;;;;;;;10.18;3.53;;;;;;;;;;3565683;40;20578;-60
2021/08/19 11:50:31;;;;;;;10.85;3.85;;;;;;;;;;3565875;40;20060;-60
2021/08/19 11:52:57;;;;;;;9.02;3.65;;;;;;;;;;3566246;40;20065;-60
2021/08/19 11:55:23;;;;;;;7.63;3.70;;;;;;;;;;3565015;40;20037;-59
2021/08/19 11:57:49;;;;;;;5.90;3.30;;;;;;;;;;3565424;40;20036;-60
2021/08/19 12:00:15;;;;;;;4.35;2.90;;;;;;;;;;3564771;40;20025;-60
2021/08/19 12:02:41;;;;;;;7.13;2.92;;;;;;;;;;3566810;40;20067;-60
2021/08/19 12:05:07;;;;;;;4.47;2.63;;;;;;;;;;3566164;40;20298;-60
2021/08/19 12:07:33;;;;;;;7.03;2.90;;;;;;;;;;3567323;40;20044;-60
2021/08/19 12:09:59;;;;;;;8.48;3.22;;;;;;;;;;3567417;40;20036;-60
2021/08/19 12:12:27;;;;;;;7.95;2.97;;;;;;;;;;3567115;40;20047;-60
2021/08/19 12:14:53;;;;;;;7.07;3.35;;;;;;;;;;3569445;40;20037;-60
2021/08/19 12:17:19;;;;;;;6.82;3.33;;;;;;;;;;3566040;40;20081;-60
2021/08/19 12:19:45;;;;;;;7.97;2.85;;;;;;;;;;3565462;40;20119;-60
2021/08/19 12:22:11;;;;;;;7.75;2.80;;;;;;;;;;3565768;40;20085;-60
2021/08/19 12:24:38;;;;;;;10.20;3.20;;;;;;;;;;3567941;40;20356;-60
2021/08/19 12:27:04;;;;;;;6.95;3.13;;;;;;;;;;3565555;40;20029;-67
2021/08/19 12:29:30;;;;;;;5.25;3.03;;;;;;;;;;3566819;40;20667;-67
2021/08/19 12:31:58;;;;;;;14.43;3.30;;;;;;;;;;3570793;40;20025;-67
2021/08/19 12:34:23;;;;;;;6.80;3.25;;;;;;;;;;3564447;40;20041;-67
2021/08/19 12:36:50;;;;;;;5.63;3.30;;;;;;;;;;3566132;40;20114;-67
2021/08/19 12:39:16;;;;;;;7.95;2.80;;;;;;;;;;3567750;40;20029;-67
2021/08/19 12:41:42;;;;;;;8.98;3.13;;;;;;;;;;3567154;40;20025;-67
2021/08/19 12:44:08;;;;;;;5.70;2.70;;;;;;;;;;3570166;40;20096;-67
2021/08/19 12:46:33;;;;;;;5.25;3.00;;;;;;;;;;3566811;40;20044;-67
2021/08/19 12:48:59;;;;;;;13.15;3.30;;;;;;;;;;3564366;40;20041;-66
2021/08/19 12:51:28;;;;;;;6.22;2.95;;;;;;;;;;3566024;40;20037;-67
2021/08/19 12:53:54;;;;;;;11.68;2.85;;;;;;;;;;3567353;40;20033;-67
2021/08/19 12:56:20;;;;;;;8.10;3.38;;;;;;;;;;3567041;40;20025;-67
2021/08/19 12:58:46;;;;;;;6.38;3.05;;;;;;;;;;3566952;40;20048;-67
2021/08/19 13:01:12;;;;;;;7.80;2.90;;;;;;;;;;3565519;40;20053;-67
2021/08/19 13:03:38;;;;;;;6.57;3.47;;;;;;;;;;3565356;40;20025;-67
2021/08/19 13:06:04;;;;;;;12.30;3.58;;;;;;;;;;3566069;40;20049;-66
2021/08/19 13:08:30;;;;;;;6.10;3.33;;;;;;;;;;3564330;40;20385;-67
2021/08/19 13:10:56;;;;;;;8.35;3.58;;;;;;;;;;3564384;40;20021;-67
2021/08/19 13:13:23;;;;;;;7.68;3.42;;;;;;;;;;3564895;40;20146;-67
2021/08/19 13:15:49;;;;;;;5.97;2.80;;;;;;;;;;3565307;40;20524;-67
2021/08/19 13:18:15;;;;;;;6.65;3.33;;;;;;;;;;3564857;40;20081;-66
2021/08/19 13:20:42;;;;;;;5.18;2.88;;;;;;;;;;3566005;40;20056;-66
2021/08/19 13:23:08;;;;;;;5.13;3.15;;;;;;;;;;3566086;40;20041;-67
2021/08/19 13:25:34;;;;;;;6.43;3.28;;;;;;;;;;3565953;40;20029;-68
2021/08/19 13:28:00;;;;;;;13.32;7.55;;;;;;;;;;3563313;40;20496;-66
2021/08/19 13:30:28;;;;;;;8.23;3.22;;;;;;;;;;3567017;40;20028;-68
2021/08/19 13:32:54;;;;;;;7.45;3.40;;;;;;;;;;3566939;40;20037;-68
2021/08/19 13:35:20;;;;;;;8.80;3.72;;;;;;;;;;3566645;40;20723;-68
2021/08/19 13:37:46;;;;;;;10.23;3.70;;;;;;;;;;3569471;40;20033;-68
2021/08/19 13:40:12;;;;;;;8.15;3.55;;;;;;;;;;3563632;40;20089;-68
2021/08/19 13:42:38;;;;;;;8.07;4.63;;;;;;;;;;3566119;40;20047;-67
2021/08/19 13:45:04;;;;;;;7.80;3.55;;;;;;;;;;3566206;40;20653;-70
2021/08/19 13:47:30;;;;;;;7.60;3.42;;;;;;;;;;3566154;40;20042;-67
2021/08/19 13:49:56;;;;;;;15.73;6.13;;;;;;;;;;3565698;40;20134;-67
2021/08/19 13:52:22;;;;;;;26.55;6.65;;;;;;;;;;3566000;40;20033;-67
2021/08/19 13:54:48;;;;;;;51.20;10.10;;;;;;;;;;3566113;40;20073;-67
2021/08/19 13:57:14;;;;;;;21.98;6.43;;;;;;;;;;3565560;40;20025;-67
2021/08/19 13:59:40;;;;;;;20.50;4.72;;;;;;;;;;3567243;40;20065;-68
2021/08/19 14:02:06;;;;;;;94.32;12.55;;;;;;;;;;3566535;40;20021;-68
2021/08/19 14:04:32;;;;;;;76.65;10.13;;;;;;;;;;3566655;40;20029;-68
2021/08/19 14:06:58;;;;;;;103.32;13.57;;;;;;;;;;3564809;40;20033;-68
2021/08/19 14:09:24;;;;;;;38.42;7.05;;;;;;;;;;3567606;40;20617;-68
2021/08/19 14:11:50;;;;;;;53.95;8.35;;;;;;;;;;3568066;40;20459;-68
2021/08/19 14:14:17;;;;;;;17.83;5.15;;;;;;;;;;3567176;40;20781;-68
2021/08/19 14:16:43;;;;;;;49.33;8.50;;;;;;;;;;3566462;40;20458;-67
2021/08/19 14:19:09;;;;;;;36.70;7.30;;;;;;;;;;3567618;40;20026;-68
2021/08/19 14:21:35;;;;;;;44.75;7.85;;;;;;;;;;3567776;40;20118;-67